Time;durP1;ratioP1;P1;durP2;ratioP2;P2;SDS_P1;SDS_P2;PMS_P1;PMS_P2;Temp;Humidity;BMP_temperature;BMP_pressure;BME280_temperature;BME280_humidity;BME280_pressure;Samples;Min_cycle;Max_cycle;Signal;HPM_P1;HPM_P2
2022/05/11 00:01:38;;;;;;;9.00;3.62;;;;;;;13.99;61.29;100088.44;4318772;33;34722;-75
2022/05/11 00:04:25;;;;;;;7.57;4.18;;;;;;;14.09;61.15;100082.62;4319832;33;34993;-75
2022/05/11 00:07:11;;;;;;;9.23;3.80;;;;;;;14.10;61.39;100082.28;4318692;33;34731;-75
2022/05/11 00:09:57;;;;;;;8.07;3.30;;;;;;;14.19;61.04;100074.00;4318624;33;34204;-75
2022/05/11 00:12:46;;;;;;;10.27;3.95;;;;;;;13.10;65.11;100080.25;4319732;33;34776;-75
2022/05/11 00:15:33;;;;;;;5.68;3.50;;;;;;;12.40;66.91;100078.19;4319731;33;36037;-74
2022/05/11 00:18:19;;;;;;;6.55;3.25;;;;;;;13.06;65.46;100087.47;4318484;33;35493;-75
2022/05/11 00:21:06;;;;;;;5.37;3.15;;;;;;;12.98;65.46;100078.09;4319690;33;35261;-75
2022/05/11 00:23:53;;;;;;;8.05;3.17;;;;;;;13.70;63.27;100081.59;4308615;33;34690;-74
2022/05/11 00:26:39;;;;;;;6.40;3.45;;;;;;;13.77;62.83;100087.41;4318752;33;36041;-74
2022/05/11 00:29:26;;;;;;;6.93;3.28;;;;;;;13.85;62.83;100083.88;4319420;33;35708;-75
2022/05/11 00:32:12;;;;;;;5.93;2.85;;;;;;;13.84;62.55;100082.25;4318628;33;34202;-74
2022/05/11 00:34:58;;;;;;;5.57;3.00;;;;;;;13.87;62.59;100081.63;4319705;33;35660;-75
2022/05/11 00:37:45;;;;;;;10.25;3.55;;;;;;;13.78;62.99;100080.00;4318342;33;36152;-75
2022/05/11 00:40:32;;;;;;;6.85;3.15;;;;;;;13.82;62.62;100084.53;4318635;33;34990;-75
2022/05/11 00:43:33;;;;;;;5.78;3.00;;;;;;;13.82;62.55;100078.22;4308616;33;35216;-74
2022/05/11 00:46:39;;;;;;;8.15;3.35;;;;;;;13.81;62.18;100079.34;4308642;33;34719;-74
2022/05/11 00:49:45;;;;;;;7.43;3.15;;;;;;;12.97;65.25;100078.38;4318631;33;35980;-75
2022/05/11 00:52:42;;;;;;;5.30;3.20;;;;;;;13.60;63.18;100085.44;4318685;33;35453;-75
2022/05/11 00:55:32;;;;;;;9.23;3.90;;;;;;;13.02;64.56;100073.56;4319395;33;34261;-74
2022/05/11 00:58:23;;;;;;;7.10;3.37;;;;;;;13.19;64.40;100077.53;4318266;33;34755;-75
2022/05/11 01:01:09;;;;;;;6.50;3.53;;;;;;;12.80;64.78;100079.09;4307399;33;34954;-75
2022/05/11 01:04:02;;;;;;;7.05;2.80;;;;;;;12.97;65.37;100079.19;4319554;33;34707;-74
2022/05/11 01:06:49;;;;;;;5.72;3.40;;;;;;;12.96;65.56;100074.81;4308137;33;35125;-75
2022/05/11 01:09:36;;;;;;;7.75;3.67;;;;;;;13.40;63.66;100073.06;4319262;33;35550;-75
2022/05/11 01:12:29;;;;;;;9.07;3.90;;;;;;;13.70;62.83;100076.09;4308309;33;35014;-74
2022/05/11 01:15:17;;;;;;;6.30;3.40;;;;;;;13.64;63.34;100078.19;4318474;33;34684;-75
2022/05/11 01:18:06;;;;;;;6.78;3.42;;;;;;;13.54;63.67;100080.41;4308004;33;34221;-75
2022/05/11 01:20:52;;;;;;;7.60;3.42;;;;;;;13.52;63.75;100082.66;4308206;33;35696;-74
2022/05/11 01:23:38;;;;;;;8.68;3.60;;;;;;;13.58;63.62;100078.66;4318320;33;35106;-75
2022/05/11 01:26:25;;;;;;;8.82;3.28;;;;;;;13.59;63.35;100074.75;4319300;33;35584;-74
2022/05/11 01:29:11;;;;;;;10.18;4.07;;;;;;;13.59;62.95;100081.06;4319180;33;34197;-75
2022/05/11 01:31:57;;;;;;;6.22;3.20;;;;;;;13.56;62.57;100075.41;4319325;33;34729;-74
2022/05/11 01:34:44;;;;;;;8.82;3.78;;;;;;;13.71;62.38;100083.19;4319162;33;35975;-75
2022/05/11 01:37:32;;;;;;;7.53;3.75;;;;;;;13.71;62.54;100080.44;4318929;33;35012;-75
2022/05/11 01:40:18;;;;;;;8.60;3.72;;;;;;;13.08;65.20;100076.97;4318257;33;34423;-75
2022/05/11 01:43:05;;;;;;;8.77;3.50;;;;;;;13.00;65.76;100086.00;4318253;33;34808;-75
2022/05/11 01:45:51;;;;;;;5.95;3.40;;;;;;;13.01;65.74;100079.41;4318037;33;35001;-75
2022/05/11 01:48:37;;;;;;;7.32;3.78;;;;;;;13.41;64.20;100079.41;4308056;33;34699;-74
2022/05/11 01:51:24;;;;;;;7.65;3.58;;;;;;;13.65;63.27;100079.78;4319159;33;34145;-74
2022/05/11 01:54:10;;;;;;;7.95;3.58;;;;;;;13.68;63.16;100081.91;4319054;33;34646;-75
2022/05/11 01:56:56;;;;;;;7.20;3.47;;;;;;;13.78;63.14;100078.03;4318072;33;35047;-75
2022/05/11 01:59:43;;;;;;;6.40;3.55;;;;;;;13.21;65.38;100084.34;4318996;33;35463;-75
2022/05/11 02:02:29;;;;;;;7.12;3.70;;;;;;;13.54;64.16;100081.22;4318969;33;34137;-75
2022/05/11 02:08:20;;;;;;;7.68;4.00;;;;;;;13.69;63.18;100082.72;4318155;33;34966;-74
2022/05/11 02:11:07;;;;;;;8.55;3.95;;;;;;;13.79;62.55;100079.66;4318868;33;34739;-75
2022/05/11 02:13:53;;;;;;;10.20;3.62;;;;;;;13.73;62.63;100073.50;4317720;33;34996;-75
2022/05/11 02:16:39;;;;;;;14.15;3.80;;;;;;;13.66;62.81;100075.09;4318684;33;34755;-75
2022/05/11 02:19:27;;;;;;;9.07;4.20;;;;;;;12.96;65.30;100074.81;4318807;33;34989;-75
2022/05/11 02:22:14;;;;;;;8.52;4.00;;;;;;;13.36;64.19;100074.06;4317966;33;35461;-74
2022/05/11 02:25:00;;;;;;;9.20;3.55;;;;;;;13.57;63.36;100071.50;4317730;33;35007;-74
2022/05/11 02:27:48;;;;;;;9.32;3.67;;;;;;;13.53;63.34;100076.03;4318749;33;34692;-75
2022/05/11 02:30:34;;;;;;;6.82;3.92;;;;;;;13.58;63.45;100067.66;4317751;33;35052;-75
2022/05/11 02:33:21;;;;;;;8.35;3.80;;;;;;;13.39;63.88;100071.47;4318382;33;34962;-74
2022/05/11 02:36:07;;;;;;;8.90;3.80;;;;;;;13.47;63.83;100078.94;4317585;33;34429;-74
2022/05/11 02:38:55;;;;;;;6.40;3.67;;;;;;;13.41;64.11;100073.91;4317501;33;34742;-74
2022/05/11 02:41:41;;;;;;;7.03;3.85;;;;;;;13.19;64.91;100070.06;4318480;33;36031;-74
2022/05/11 02:44:28;;;;;;;5.87;3.92;;;;;;;13.15;65.30;100060.84;4318422;33;35599;-74
2022/05/11 02:47:14;;;;;;;7.87;3.92;;;;;;;13.12;65.71;100063.41;4318430;33;34156;-74
2022/05/11 02:50:03;;;;;;;9.25;4.18;;;;;;;12.94;66.36;100066.06;4307132;33;34704;-74
2022/05/11 02:52:50;;;;;;;6.75;3.58;;;;;;;13.12;66.10;100068.91;4318115;33;36047;-74
2022/05/11 02:55:44;;;;;;;7.80;3.62;;;;;;;13.17;65.65;100074.25;4307290;33;34601;-74
2022/05/11 02:58:32;;;;;;;7.15;3.72;;;;;;;13.12;65.92;100068.91;4307144;33;35022;-74
2022/05/11 03:01:19;;;;;;;11.57;4.18;;;;;;;12.84;66.81;100060.87;4317315;33;35565;-74
2022/05/11 03:04:05;;;;;;;9.50;4.50;;;;;;;12.93;66.54;100060.91;4318059;33;34964;-74
2022/05/11 03:06:51;;;;;;;7.80;4.85;;;;;;;12.89;66.70;100066.22;4318071;33;34771;-74
2022/05/11 03:09:38;;;;;;;7.10;4.30;;;;;;;13.02;66.29;100064.50;4318263;33;35070;-75
2022/05/11 03:12:24;;;;;;;8.68;4.50;;;;;;;12.78;66.79;100062.94;4317921;33;34749;-74
2022/05/11 03:15:11;;;;;;;8.95;4.18;;;;;;;12.87;66.86;100064.91;4317020;33;36029;-74
2022/05/11 03:17:57;;;;;;;8.55;4.93;;;;;;;13.01;66.77;100068.38;4306732;33;34712;-74
2022/05/11 03:20:44;;;;;;;9.02;3.85;;;;;;;12.97;66.56;100068.19;4317838;33;34144;-74
2022/05/11 03:23:30;;;;;;;7.32;4.55;;;;;;;13.00;66.65;100075.81;4317963;33;35636;-74
2022/05/11 03:26:16;;;;;;;9.30;4.43;;;;;;;13.02;66.49;100070.00;4320247;33;36034;-74
2022/05/11 03:29:05;;;;;;;10.32;4.15;;;;;;;13.23;65.66;100067.50;4319947;33;35710;-74
2022/05/11 03:34:56;;;;;;;7.85;3.70;;;;;;;12.72;67.23;100074.37;4319952;33;34771;-74
2022/05/11 03:37:42;;;;;;;9.43;3.55;;;;;;;12.82;66.80;100077.66;4319253;33;35001;-75
2022/05/11 03:40:29;;;;;;;7.03;3.78;;;;;;;12.96;66.90;100080.31;4320088;33;34580;-74
2022/05/11 03:43:16;;;;;;;8.50;4.68;;;;;;;13.04;66.25;100084.25;4319957;33;34125;-75
2022/05/11 03:46:02;;;;;;;9.75;4.25;;;;;;;13.08;66.64;100087.19;4318878;33;34765;-75
2022/05/11 03:48:49;;;;;;;6.15;4.00;;;;;;;13.19;66.21;100089.34;4319951;33;35074;-75
2022/05/11 03:51:35;;;;;;;9.70;4.22;;;;;;;12.99;66.94;100082.44;4319916;33;34682;-75
2022/05/11 03:54:21;;;;;;;8.30;4.20;;;;;;;13.07;66.94;100097.38;4319941;33;34270;-74
2022/05/11 03:57:08;;;;;;;9.68;4.22;;;;;;;12.86;67.43;100091.59;4318819;33;35506;-74
2022/05/11 03:59:54;;;;;;;11.12;4.30;;;;;;;12.64;68.93;100092.44;4319635;33;35029;-74
2022/05/11 04:02:41;;;;;;;7.05;4.20;;;;;;;12.15;71.71;100095.00;4319923;33;34760;-74
2022/05/11 04:05:28;;;;;;;8.30;4.25;;;;;;;12.57;69.69;100089.31;4313562;33;177802;-74
2022/05/11 04:08:14;;;;;;;14.07;4.80;;;;;;;12.33;70.44;100095.13;4318859;33;34698;-74
2022/05/11 04:11:01;;;;;;;8.38;4.37;;;;;;;11.22;73.76;100098.03;4319826;33;36073;-75
2022/05/11 04:13:47;;;;;;;7.95;4.70;;;;;;;12.22;72.26;100099.25;4319916;33;34617;-75
2022/05/11 04:16:33;;;;;;;8.25;4.35;;;;;;;12.28;71.63;100101.56;4319685;33;35174;-74
2022/05/11 04:19:19;;;;;;;8.27;4.57;;;;;;;12.80;69.64;100109.34;4319771;33;34754;-74
2022/05/11 04:22:06;;;;;;;9.77;5.00;;;;;;;12.93;69.01;100102.97;4319735;33;34966;-74
2022/05/11 04:24:52;;;;;;;9.73;4.22;;;;;;;13.17;67.91;100107.28;4318483;33;34858;-74
2022/05/11 04:27:38;;;;;;;7.37;4.03;;;;;;;13.45;66.85;100102.41;4319586;33;34478;-75
2022/05/11 04:30:26;;;;;;;9.75;4.53;;;;;;;13.62;66.51;100118.16;4319707;33;34678;-74
2022/05/11 04:33:13;;;;;;;7.95;4.85;;;;;;;13.71;66.27;100117.06;4319575;33;35139;-73
2022/05/11 04:35:59;;;;;;;8.95;4.50;;;;;;;13.70;66.57;100111.87;4319522;33;34695;-74
2022/05/11 04:38:45;;;;;;;9.75;4.70;;;;;;;13.94;66.06;100112.25;4318629;33;34068;-74
2022/05/11 04:41:31;;;;;;;10.63;4.85;;;;;;;14.05;65.73;100111.94;4318712;33;34546;-74
2022/05/11 04:44:18;;;;;;;9.43;4.57;;;;;;;14.18;64.92;100119.25;4319443;33;36036;-74
2022/05/11 04:47:12;;;;;;;9.95;4.78;;;;;;;14.46;64.48;100110.63;4318646;33;34734;-74
2022/05/11 04:49:58;;;;;;;12.70;5.15;;;;;;;14.52;65.03;100106.62;4319561;33;34153;-74
2022/05/11 04:52:44;;;;;;;9.82;4.62;;;;;;;14.55;65.17;100109.53;4319461;33;35558;-74
2022/05/11 04:55:31;;;;;;;9.43;4.93;;;;;;;14.69;64.62;100109.38;4318546;33;35032;-74
2022/05/11 04:58:17;;;;;;;8.85;4.75;;;;;;;14.78;64.18;100112.91;4318549;33;35557;-74
2022/05/11 05:01:03;;;;;;;9.40;4.53;;;;;;;13.70;67.16;100114.63;4319568;33;34235;-74
2022/05/11 05:03:50;;;;;;;13.35;5.20;;;;;;;13.79;67.58;100114.66;4318911;33;34735;-77
2022/05/11 05:06:38;;;;;;;10.40;5.60;;;;;;;13.83;68.55;100113.72;4318225;33;35384;-77
2022/05/11 05:09:24;;;;;;;10.18;4.97;;;;;;;13.66;69.31;100122.72;4318503;33;35538;-75
2022/05/11 05:12:12;;;;;;;13.95;5.72;;;;;;;14.70;66.19;100118.44;4321510;33;34186;-79
2022/05/11 05:14:58;;;;;;;9.65;4.97;;;;;;;14.92;65.54;100114.69;4321433;33;35030;-77
2022/05/11 05:17:45;;;;;;;9.98;5.20;;;;;;;15.41;64.36;100120.69;4319604;33;35352;-78
2022/05/11 05:20:31;;;;;;;8.77;4.80;;;;;;;15.30;63.98;100114.69;4318473;33;35654;-78
2022/05/11 05:23:18;;;;;;;9.15;5.07;;;;;;;15.86;62.31;100112.66;4318252;33;34333;-77
2022/05/11 05:26:04;;;;;;;11.05;4.90;;;;;;;15.92;62.86;100113.28;4308029;33;35516;-76
2022/05/11 05:31:55;;;;;;;31.77;7.35;;;;;;;16.01;60.91;100113.22;4312616;33;34848;-81
2022/05/11 05:34:43;;;;;;;11.02;4.90;;;;;;;15.73;63.01;100113.72;4320477;33;34651;-80
2022/05/11 05:37:29;;;;;;;12.50;4.62;;;;;;;16.02;60.58;100110.09;4310715;33;34858;-80
2022/05/11 05:40:16;;;;;;;7.07;4.47;;;;;;;16.19;61.23;100112.75;4320862;33;35590;-80
2022/05/11 05:43:05;;;;;;;9.73;4.55;;;;;;;15.92;62.31;100114.09;4319200;33;34724;-79
2022/05/11 05:45:54;;;;;;;9.32;4.95;;;;;;;15.71;63.95;100125.09;4319148;33;34176;-78
2022/05/11 05:48:40;;;;;;;10.68;5.47;;;;;;;16.13;63.38;100108.56;4317325;33;34649;-78
2022/05/11 05:51:27;;;;;;;10.75;4.72;;;;;;;16.19;63.02;100121.06;4318107;33;35060;-79
2022/05/11 05:54:13;;;;;;;8.48;5.00;;;;;;;16.47;62.86;100123.25;4319236;33;35460;-78
2022/05/11 05:57:00;;;;;;;7.53;4.03;;;;;;;16.43;60.01;100122.31;4318536;33;34287;-77
2022/05/11 05:59:46;;;;;;;8.23;3.78;;;;;;;16.95;58.78;100119.06;4318855;33;34736;-77
2022/05/11 06:02:33;;;;;;;10.13;4.60;;;;;;;17.73;57.92;100107.03;4317959;33;35072;-77
2022/05/11 06:05:20;;;;;;;9.75;4.40;;;;;;;18.08;58.07;100109.34;4317851;33;34628;-78
2022/05/11 06:08:12;;;;;;;9.98;3.90;;;;;;;18.43;55.80;100112.34;4318760;33;35178;-78
2022/05/11 06:10:59;;;;;;;8.43;4.15;;;;;;;18.68;54.86;100117.78;4318832;33;34779;-78
2022/05/11 06:13:45;;;;;;;12.88;5.47;;;;;;;18.92;55.68;100118.84;4317775;33;34937;-79
2022/05/11 06:16:32;;;;;;;8.30;4.15;;;;;;;18.84;53.47;100110.34;4318740;33;34974;-79
2022/05/11 06:19:18;;;;;;;7.53;3.75;;;;;;;19.12;52.62;100120.59;4307243;33;35277;-80
2022/05/11 06:22:04;;;;;;;6.53;3.67;;;;;;;19.26;52.19;100112.63;4318130;33;34865;-78
2022/05/11 06:24:50;;;;;;;7.70;3.97;;;;;;;19.00;52.41;100120.66;4317482;33;36048;-78
2022/05/11 06:27:37;;;;;;;6.82;3.20;;;;;;;18.80;50.79;100120.53;4317843;33;34607;-80
2022/05/11 06:30:23;;;;;;;7.57;3.37;;;;;;;19.67;47.98;100104.94;4316960;33;34192;-78
2022/05/11 06:33:09;;;;;;;5.35;3.35;;;;;;;19.60;49.56;100110.28;4318288;33;33801;-79
2022/05/11 06:35:56;;;;;;;9.43;3.47;;;;;;;19.22;49.62;100120.06;4318599;33;35954;-80
2022/05/11 06:38:43;;;;;;;6.18;3.47;;;;;;;19.28;50.79;100113.06;4316759;33;35659;-82
2022/05/11 06:41:31;;;;;;;5.78;3.47;;;;;;;19.54;48.92;100112.53;4317357;33;34190;-79
2022/05/11 06:44:17;;;;;;;7.47;3.62;;;;;;;19.64;46.97;100108.41;4307386;33;34775;-80
2022/05/11 06:47:04;;;;;;;5.35;3.25;;;;;;;20.49;46.37;100117.06;4316550;33;35004;-79
2022/05/11 06:49:50;;;;;;;6.40;2.95;;;;;;;20.79;46.91;100113.72;4317240;33;34664;-79
2022/05/11 06:52:36;;;;;;;5.85;3.17;;;;;;;20.07;45.89;100103.84;4312497;33;34178;-80
2022/05/11 07:01:34;;;;;;;8.75;3.22;;;;;;;20.69;45.10;100105.94;4319765;33;35776;-80
2022/05/11 07:04:23;;;;;;;7.75;3.60;;;;;;;20.92;45.01;100109.59;4318756;33;35081;-80
2022/05/11 07:07:10;;;;;;;6.05;2.78;;;;;;;20.99;43.10;100104.13;4298959;33;34729;-80
2022/05/11 07:09:56;;;;;;;6.95;2.70;;;;;;;20.93;44.45;100102.03;4290680;33;35068;-79
2022/05/11 07:12:46;;;;;;;5.25;2.40;;;;;;;21.25;43.88;100099.81;4293235;33;34853;-81
2022/05/11 07:15:32;;;;;;;4.60;2.58;;;;;;;21.27;42.68;100105.81;4296382;33;35359;-84
2022/05/11 07:18:19;;;;;;;9.07;3.05;;;;;;;21.17;44.70;100106.44;4311314;33;34709;-82
2022/05/11 07:21:05;;;;;;;5.53;2.50;;;;;;;21.54;43.33;100101.94;4292433;33;35018;-82
2022/05/11 07:23:51;;;;;;;6.95;2.72;;;;;;;21.53;40.79;100105.09;4296706;33;34708;-79
2022/05/11 07:26:38;;;;;;;4.75;2.53;;;;;;;21.73;40.71;100106.59;4303604;33;34142;-80
2022/05/11 07:29:24;;;;;;;5.37;2.58;;;;;;;21.89;40.70;100111.22;4290822;33;34658;-77
2022/05/11 07:32:10;;;;;;;5.20;2.67;;;;;;;22.00;41.06;100107.41;4300804;33;35993;-82
2022/05/11 07:34:57;;;;;;;4.65;2.95;;;;;;;22.38;39.83;100104.75;4293631;33;35600;-78
2022/05/11 07:37:46;;;;;;;7.25;2.62;;;;;;;22.89;40.61;100096.53;4291774;33;35192;-77
2022/05/11 07:40:32;;;;;;;5.22;2.62;;;;;;;22.60;38.43;100103.03;4289444;33;34323;-79
2022/05/11 07:43:20;;;;;;;4.72;2.67;;;;;;;22.28;40.23;100106.19;4305058;33;35927;-84
2022/05/11 07:46:06;;;;;;;5.32;2.75;;;;;;;22.07;41.38;100105.88;4310707;33;34602;-79
2022/05/11 07:48:52;;;;;;;5.28;2.70;;;;;;;22.15;40.99;100102.03;4296937;33;35145;-79
2022/05/11 07:51:41;;;;;;;11.52;2.75;;;;;;;22.19;39.17;100100.09;4290613;33;34754;-80
2022/05/11 07:54:29;;;;;;;5.22;2.80;;;;;;;22.01;40.78;100106.22;4291842;33;34959;-78
2022/05/11 08:00:21;;;;;;;5.05;2.80;;;;;;;22.65;38.65;100105.44;4299287;33;33795;-78
2022/05/11 08:03:15;;;;;;;6.00;2.70;;;;;;;23.43;37.15;100107.47;4292921;33;34600;-80
2022/05/11 08:06:02;;;;;;;5.93;2.50;;;;;;;22.98;39.52;100110.25;4297377;33;35897;-79
2022/05/11 08:08:49;;;;;;;7.00;2.85;;;;;;;23.09;36.93;100104.75;4296916;33;34859;-82
2022/05/11 08:11:36;;;;;;;4.40;2.50;;;;;;;23.54;38.04;100109.16;4290315;33;34367;-80
2022/05/11 08:14:23;;;;;;;6.40;2.50;;;;;;;23.22;36.85;100096.88;4298769;33;34612;-79
2022/05/11 08:17:09;;;;;;;3.90;2.42;;;;;;;23.20;36.43;100105.66;4290596;33;35026;-81
2022/05/11 08:19:56;;;;;;;5.28;2.60;;;;;;;23.40;34.63;100099.84;4287471;33;35508;-82
2022/05/11 08:22:44;;;;;;;5.15;2.50;;;;;;;23.17;35.22;100100.03;4295718;33;34192;-81
2022/05/11 08:25:32;;;;;;;4.75;2.55;;;;;;;23.74;33.67;100095.75;4298630;33;34206;-79
2022/05/11 08:28:21;;;;;;;4.72;2.80;;;;;;;23.87;34.86;100095.41;4287200;33;35112;-80
2022/05/11 08:34:13;;;;;;;7.72;2.87;;;;;;;23.56;34.26;100094.75;4288009;33;34779;-78
2022/05/11 08:36:59;;;;;;;6.47;2.85;;;;;;;23.78;35.16;100088.16;4287356;33;34697;-79
2022/05/11 08:39:45;;;;;;;6.40;2.47;;;;;;;23.70;33.62;100094.06;4287548;33;34595;-80
2022/05/11 08:42:32;;;;;;;5.12;2.78;;;;;;;24.65;34.64;100087.41;4295833;33;34599;-78
2022/05/11 08:45:19;;;;;;;4.82;2.72;;;;;;;25.23;31.57;100088.34;4304992;33;34269;-79
2022/05/11 08:48:09;;;;;;;4.22;2.83;;;;;;;25.44;31.07;100089.53;4288134;33;34203;-79
2022/05/11 08:50:55;;;;;;;6.40;3.53;;;;;;;25.89;32.10;100090.72;4287772;33;35965;-77
2022/05/11 08:53:42;;;;;;;4.37;3.20;;;;;;;23.89;34.28;100101.44;4288691;33;35215;-78
2022/05/11 08:56:29;;;;;;;4.55;2.95;;;;;;;24.20;32.21;100098.00;4288441;33;35155;-78
2022/05/11 08:59:21;;;;;;;6.97;2.62;;;;;;;25.41;33.41;100085.53;4287150;33;34315;-78
2022/05/11 09:02:45;;;;;;;5.40;3.05;;;;;;;25.91;32.01;100081.91;4287398;33;35022;-78
2022/05/11 09:05:33;;;;;;;6.78;3.15;;;;;;;24.94;31.92;100086.69;4293546;33;34924;-78
2022/05/11 09:08:20;;;;;;;4.62;2.55;;;;;;;25.37;29.78;100081.94;4316768;33;33865;-79
2022/05/11 09:11:10;;;;;;;5.57;3.20;;;;;;;24.91;31.00;100094.69;4316636;33;34811;-78
2022/05/11 09:13:58;;;;;;;4.47;2.60;;;;;;;25.09;30.67;100088.28;4316445;33;35035;-80
2022/05/11 09:16:50;;;;;;;4.65;2.78;;;;;;;24.87;30.57;100087.44;4318570;33;35483;-82
2022/05/11 09:19:36;;;;;;;7.10;2.75;;;;;;;24.75;30.59;100087.84;4317077;33;35086;-80
2022/05/11 09:22:24;;;;;;;5.40;2.85;;;;;;;25.08;29.69;100076.28;4313645;33;34684;-80
2022/05/11 09:25:20;;;;;;;3.85;2.78;;;;;;;24.48;30.85;100079.75;4317616;33;35003;-82
2022/05/11 09:28:22;;;;;;;7.03;2.90;;;;;;;25.09;30.01;100083.47;4316517;33;35505;-79
2022/05/11 09:31:14;;;;;;;5.97;3.08;;;;;;;25.19;30.19;100081.09;4318375;33;34160;-78
2022/05/11 09:34:03;;;;;;;5.50;3.03;;;;;;;24.85;31.23;100081.47;4306417;33;35069;-78
2022/05/11 09:37:35;;;;;;;6.80;3.28;;;;;;;24.91;30.39;100077.06;4307536;33;35665;-78
2022/05/11 09:40:22;;;;;;;8.27;2.90;;;;;;;24.84;29.70;100079.84;4319239;33;34630;-79
2022/05/11 09:43:10;;;;;;;5.50;2.92;;;;;;;25.87;28.67;100081.91;4313190;33;34179;-79
2022/05/11 09:45:56;;;;;;;5.15;2.75;;;;;;;26.16;29.77;100076.22;4318747;33;35633;-79
2022/05/11 09:49:21;;;;;;;5.00;3.50;;;;;;;26.53;27.27;100077.69;4319118;33;36040;-79
2022/05/11 09:52:08;;;;;;;6.30;3.70;;;;;;;26.73;30.33;100078.78;4302054;33;34683;-79
2022/05/11 09:54:54;;;;;;;6.60;3.65;;;;;;;27.37;28.83;100078.34;4292274;33;34244;-78
2022/05/11 09:57:52;;;;;;;5.40;3.08;;;;;;;26.92;29.28;100083.88;4305753;33;34754;-78
2022/05/11 10:00:40;;;;;;;7.50;3.45;;;;;;;27.16;28.16;100083.34;4318977;33;35098;-78
2022/05/11 10:03:29;;;;;;;6.25;3.10;;;;;;;26.82;28.27;100067.87;4317911;33;35698;-78
2022/05/11 10:06:18;;;;;;;5.87;3.40;;;;;;;26.21;29.87;100070.16;4317665;33;35188;-78
2022/05/11 10:09:06;;;;;;;5.62;3.25;;;;;;;26.11;30.30;100066.19;4307777;33;34679;-78
2022/05/11 10:11:52;;;;;;;7.03;3.60;;;;;;;26.14;31.22;100073.00;4307251;33;35970;-78
2022/05/11 10:24:39;;;;;;;5.40;3.53;;;;;;;26.82;28.85;100067.87;4317834;33;35924;-79
2022/05/11 10:27:58;;;;;;;8.00;3.33;;;;;;;26.96;28.10;100064.19;4318708;33;34797;-78
2022/05/11 10:30:44;;;;;;;8.68;3.20;;;;;;;26.64;28.83;100062.38;4313758;33;35161;-78
2022/05/11 10:34:02;;;;;;;5.07;3.45;;;;;;;24.80;30.52;100070.63;4318942;33;35582;-78
2022/05/11 10:37:04;;;;;;;5.35;3.67;;;;;;;26.47;28.72;100068.88;4320130;33;36054;-79
2022/05/11 10:40:32;;;;;;;6.80;3.17;;;;;;;27.39;29.56;100063.87;4320275;33;34699;-78
2022/05/11 10:43:27;;;;;;;4.80;3.30;;;;;;;25.76;29.56;100053.84;4320483;33;35032;-78
2022/05/11 10:46:41;;;;;;;5.10;3.30;;;;;;;27.03;29.02;100058.50;4320094;33;35692;-78
2022/05/11 10:50:06;;;;;;;5.90;3.28;;;;;;;25.76;29.25;100044.63;4309262;33;34943;-78
2022/05/11 10:53:38;;;;;;;6.78;3.15;;;;;;;25.05;31.81;100042.66;4319396;33;34826;-78
2022/05/11 10:56:40;;;;;;;6.10;3.00;;;;;;;24.01;29.83;100047.91;4309166;33;35048;-79
2022/05/11 10:59:32;;;;;;;6.90;3.08;;;;;;;25.60;27.43;100052.66;4319314;33;34669;-79
2022/05/11 11:02:33;;;;;;;6.12;2.45;;;;;;;26.51;25.79;100046.38;4320047;33;35011;-78
2022/05/11 11:05:26;;;;;;;5.05;2.87;;;;;;;26.48;25.22;100043.16;4319880;33;34826;-79
2022/05/11 11:08:30;;;;;;;5.87;2.95;;;;;;;26.96;25.14;100043.69;4320206;33;35329;-79
2022/05/11 11:12:04;;;;;;;4.15;3.12;;;;;;;25.60;27.31;100036.63;4319307;33;35564;-79
2022/05/11 11:14:52;;;;;;;4.78;2.90;;;;;;;27.20;25.35;100034.28;4320089;33;35021;-79
2022/05/11 11:17:40;;;;;;;5.53;3.17;;;;;;;26.27;27.22;100034.03;4319333;33;34652;-79
2022/05/11 11:20:27;;;;;;;5.05;3.10;;;;;;;25.67;28.97;100033.00;4319376;33;35033;-78
2022/05/11 11:23:16;;;;;;;5.60;3.22;;;;;;;25.56;27.85;100027.44;4318990;33;34368;-79
2022/05/11 11:26:07;;;;;;;6.05;2.60;;;;;;;24.52;30.71;100037.75;4320069;33;35016;-79
2022/05/11 11:28:56;;;;;;;7.55;3.33;;;;;;;24.37;31.73;100034.88;4319184;33;34752;-79
2022/05/11 11:31:58;;;;;;;4.50;2.83;;;;;;;25.73;30.77;100025.78;4320231;33;34236;-79
2022/05/11 11:34:48;;;;;;;5.68;2.92;;;;;;;26.75;29.08;100028.56;4320078;33;35565;-79
2022/05/11 11:37:38;;;;;;;5.65;2.97;;;;;;;27.67;25.31;100031.84;4319861;33;35049;-79
2022/05/11 11:40:26;;;;;;;5.30;3.20;;;;;;;28.52;26.81;100017.97;4318975;33;34601;-79
2022/05/11 11:43:55;;;;;;;6.55;3.25;;;;;;;27.89;24.13;100007.09;4319064;33;35066;-79
2022/05/11 11:46:45;;;;;;;5.80;3.17;;;;;;;28.12;24.90;100009.22;4319127;33;35604;-79
2022/05/11 11:49:32;;;;;;;5.28;3.20;;;;;;;28.41;24.85;100006.03;4319942;33;34973;-79
2022/05/11 11:52:36;;;;;;;5.18;2.90;;;;;;;28.36;23.84;99992.41;4319911;33;35499;-79
2022/05/11 11:55:30;;;;;;;4.93;3.00;;;;;;;27.96;23.98;99992.13;4320072;33;34235;-78
2022/05/11 11:58:27;;;;;;;5.00;2.83;;;;;;;27.95;24.15;99990.50;4311843;33;34726;-78
2022/05/11 12:01:19;;;;;;;8.10;3.22;;;;;;;29.18;23.86;99977.06;4309192;33;34878;-79
2022/05/11 12:04:11;;;;;;;6.70;3.50;;;;;;;28.29;23.96;99992.50;4308810;33;34829;-80
2022/05/11 12:16:52;;;;;;;7.25;3.25;;;;;;;27.65;26.15;99974.38;4322865;33;35793;-79
2022/05/11 12:19:41;;;;;;;5.37;2.90;;;;;;;28.27;25.20;99969.59;4321831;33;34416;-80
2022/05/11 12:22:29;;;;;;;5.90;3.20;;;;;;;28.35;25.03;99971.88;4320658;33;34849;-79
2022/05/11 12:25:31;;;;;;;7.78;3.15;;;;;;;28.02;25.64;99963.06;4309448;33;35049;-80
2022/05/11 12:28:31;;;;;;;5.72;3.20;;;;;;;28.30;24.98;99961.09;4321088;33;35012;-79
2022/05/11 12:31:27;;;;;;;4.97;3.55;;;;;;;27.43;25.84;99979.41;4309043;33;34986;-80
2022/05/11 12:34:14;;;;;;;4.68;3.30;;;;;;;27.39;26.21;99968.19;4318596;33;34813;-80
2022/05/11 12:37:00;;;;;;;5.22;3.50;;;;;;;27.46;25.70;99965.31;4319844;33;34998;-79
2022/05/11 12:39:54;;;;;;;6.32;3.20;;;;;;;27.69;25.09;99963.84;4320175;33;34767;-78
2022/05/11 12:42:44;;;;;;;5.72;3.33;;;;;;;27.09;25.42;99960.41;4308936;33;34407;-79
2022/05/11 12:45:41;;;;;;;6.68;3.12;;;;;;;27.13;26.10;99964.00;4308862;33;34736;-79
2022/05/11 12:48:33;;;;;;;5.93;3.00;;;;;;;27.51;25.00;99955.63;4319076;33;35088;-78
2022/05/11 12:51:31;;;;;;;5.18;3.33;;;;;;;26.82;26.40;99955.44;4309070;33;34634;-79
2022/05/11 12:54:26;;;;;;;4.53;3.10;;;;;;;27.75;26.43;99948.91;4309327;33;34320;-78
2022/05/11 12:57:15;;;;;;;7.45;3.55;;;;;;;27.73;25.72;99940.06;4308227;33;34710;-78
2022/05/11 13:00:16;;;;;;;5.35;3.00;;;;;;;27.77;24.88;99940.03;4319452;33;36166;-77
2022/05/11 13:03:30;;;;;;;4.43;2.92;;;;;;;26.98;26.31;99935.22;4319473;33;34964;-77
2022/05/11 13:06:40;;;;;;;5.40;3.42;;;;;;;27.90;28.45;99929.06;4319414;33;35380;-77
2022/05/11 13:09:37;;;;;;;5.68;3.05;;;;;;;27.74;26.08;99930.41;4318620;33;34559;-77
2022/05/11 13:12:24;;;;;;;7.07;3.28;;;;;;;28.21;24.94;99938.28;4318946;33;36043;-77
2022/05/11 13:15:10;;;;;;;6.50;3.05;;;;;;;28.67;25.37;99934.78;4309029;33;35055;-78
2022/05/11 13:17:56;;;;;;;4.47;3.50;;;;;;;27.05;25.83;99932.34;4320755;33;34225;-78
2022/05/11 13:20:43;;;;;;;3.78;3.05;;;;;;;28.41;23.47;99929.94;4319708;33;34772;-78
2022/05/11 13:23:42;;;;;;;5.43;3.72;;;;;;;28.13;26.00;99922.69;4308368;33;35010;-77
2022/05/11 13:26:31;;;;;;;4.28;3.50;;;;;;;28.69;24.06;99917.44;4309131;33;35590;-77
2022/05/11 13:29:23;;;;;;;5.93;3.78;;;;;;;29.21;24.46;99910.53;4321413;33;34143;-78
2022/05/11 13:32:11;;;;;;;6.35;3.92;;;;;;;27.83;26.56;99907.41;4309652;33;34611;-78
2022/05/11 13:35:37;;;;;;;6.62;3.40;;;;;;;27.95;26.87;99912.47;4308879;33;36019;-77
2022/05/11 13:38:23;;;;;;;5.47;3.58;;;;;;;26.40;28.08;99906.75;4318167;33;35594;-78
2022/05/11 13:41:14;;;;;;;7.32;3.50;;;;;;;27.47;27.43;99899.38;4318256;33;34226;-77
2022/05/11 13:44:31;;;;;;;6.68;3.12;;;;;;;27.31;28.16;99897.13;4319256;33;34622;-78
2022/05/11 13:50:42;;;;;;;7.85;3.42;;;;;;;28.51;26.20;99895.16;4319074;33;35445;-78
2022/05/11 13:53:33;;;;;;;6.18;3.47;;;;;;;28.28;26.91;99893.09;4307833;33;34216;-78
2022/05/11 13:56:23;;;;;;;9.88;3.72;;;;;;;28.51;25.75;99881.06;4308144;33;34560;-78
2022/05/11 13:59:11;;;;;;;5.97;3.65;;;;;;;28.13;26.59;99884.06;4303457;33;35878;-78